createdAt,value
2019-05-15T00:01:30.732Z,53.67
2019-05-15T00:04:01.168Z,56.07
2019-05-15T00:06:31.665Z,47.27
2019-05-15T00:09:02.604Z,60.70
2019-05-15T00:11:33.152Z,63.50
2019-05-15T00:14:03.594Z,47.57
2019-05-15T00:16:34.038Z,60.30
2019-05-15T00:19:04.418Z,51.17
2019-05-15T00:21:34.776Z,64.00
2019-05-15T00:24:05.255Z,49.97
2019-05-15T00:26:35.633Z,50.03
2019-05-15T00:29:12.911Z,46.83
2019-05-15T00:31:39.328Z,48.73
2019-05-15T00:34:12.719Z,51.17
2019-05-15T00:36:41.949Z,56.77
2019-05-15T00:39:12.302Z,54.13
2019-05-15T00:41:53.362Z,51.80
2019-05-15T00:44:15.866Z,52.20
2019-05-15T00:46:48.651Z,55.60
2019-05-15T00:49:18.909Z,57.83
2019-05-15T00:51:49.399Z,59.07
2019-05-15T00:54:19.818Z,58.80
2019-05-15T00:56:50.193Z,52.53
2019-05-15T00:59:26.329Z,49.43
2019-05-15T01:01:52.968Z,50.00
2019-05-15T01:04:23.344Z,55.83
2019-05-15T01:06:53.708Z,49.73
2019-05-15T01:09:24.190Z,50.00
2019-05-15T01:11:54.687Z,53.07
2019-05-15T01:14:25.112Z,44.47
2019-05-15T01:16:55.482Z,46.23
2019-05-15T01:19:26.121Z,55.33
2019-05-15T01:21:58.552Z,65.60
2019-05-15T01:24:28.471Z,52.37
2019-05-15T01:26:58.948Z,54.10
2019-05-15T01:29:43.082Z,48.27
2019-05-15T01:32:04.654Z,66.53
2019-05-15T01:34:35.396Z,53.27
2019-05-15T01:37:05.712Z,50.63
2019-05-15T01:39:38.358Z,47.53
2019-05-15T01:42:08.407Z,48.30
2019-05-15T01:44:39.234Z,53.43
2019-05-15T01:47:09.593Z,39.63
2019-05-15T01:49:39.997Z,47.73
2019-05-15T01:52:10.356Z,58.60
2019-05-15T01:54:42.278Z,49.60
2019-05-15T01:57:12.672Z,50.20
2019-05-15T01:59:56.906Z,54.73
2019-05-15T02:02:15.542Z,55.97
2019-05-15T02:04:48.433Z,51.77
2019-05-15T02:07:18.685Z,49.23
2019-05-15T02:09:49.430Z,47.40
2019-05-15T02:12:19.800Z,47.00
2019-05-15T02:14:53.196Z,55.87
2019-05-15T02:17:23.586Z,48.50
2019-05-15T02:19:54.143Z,49.47
2019-05-15T02:22:24.529Z,54.53
2019-05-15T02:24:54.966Z,57.83
2019-05-15T02:27:25.424Z,51.07
2019-05-15T02:30:12.956Z,46.80
2019-05-15T02:32:30.188Z,53.90
2019-05-15T02:34:59.936Z,57.07
2019-05-15T02:37:30.299Z,51.20
2019-05-15T02:40:01.237Z,45.30
2019-05-15T02:42:32.162Z,64.50
2019-05-15T02:45:02.666Z,48.93
2019-05-15T02:47:33.080Z,52.57
2019-05-15T02:50:04.601Z,53.53
2019-05-15T02:52:34.977Z,54.37
2019-05-15T02:55:08.935Z,54.10
2019-05-15T02:57:39.469Z,52.57
2019-05-15T03:00:11.317Z,50.80
2019-05-15T03:02:43.474Z,58.23
2019-05-15T03:05:14.496Z,51.77
2019-05-15T03:07:45.013Z,63.17
2019-05-15T03:10:19.745Z,50.37
2019-05-15T03:12:49.516Z,50.63
2019-05-15T03:15:20.360Z,55.37
2019-05-15T03:17:51.293Z,55.40
2019-05-15T03:20:21.691Z,55.33
2019-05-15T03:22:52.073Z,63.47
2019-05-15T03:25:22.543Z,54.53
2019-05-15T03:27:52.837Z,47.87
2019-05-15T03:30:23.227Z,60.73
2019-05-15T03:33:02.262Z,45.20
2019-05-15T03:35:25.593Z,56.67
2019-05-15T03:37:56.051Z,57.60
2019-05-15T03:40:29.559Z,46.97
2019-05-15T03:42:59.305Z,48.00
2019-05-15T03:45:30.000Z,51.50
2019-05-15T03:48:01.542Z,55.83
2019-05-15T03:50:31.942Z,47.20
2019-05-15T03:53:02.581Z,52.50
2019-05-15T03:55:33.336Z,57.17
2019-05-15T03:58:03.834Z,42.00
2019-05-15T04:00:34.364Z,41.83
2019-05-15T04:03:04.766Z,47.47
2019-05-15T04:05:35.171Z,43.93
2019-05-15T04:08:05.780Z,42.20
2019-05-15T04:10:39.482Z,53.33
2019-05-15T04:13:09.457Z,53.20
2019-05-15T04:15:40.392Z,50.47
2019-05-15T04:18:10.821Z,73.17
2019-05-15T04:20:41.327Z,48.07
2019-05-15T04:23:13.770Z,39.77
2019-05-15T04:25:45.581Z,43.37
2019-05-15T04:28:19.282Z,44.03
2019-05-15T04:30:49.993Z,42.73
2019-05-15T04:33:20.646Z,40.77
2019-05-15T04:35:51.054Z,46.20
2019-05-15T04:38:21.484Z,51.63
2019-05-15T04:40:51.860Z,43.30
2019-05-15T04:43:22.195Z,50.97
2019-05-15T04:45:52.560Z,50.87
2019-05-15T04:48:22.994Z,53.30
2019-05-15T04:50:53.391Z,40.80
2019-05-15T04:53:23.748Z,41.87
2019-05-15T04:55:54.146Z,47.40
2019-05-15T04:58:24.490Z,49.03
2019-05-15T05:00:55.848Z,45.13
2019-05-15T05:03:29.232Z,47.43
2019-05-15T05:06:00.128Z,51.53
2019-05-15T05:08:30.720Z,45.83
2019-05-15T05:11:01.158Z,38.53
2019-05-15T05:13:31.926Z,39.03
2019-05-15T05:16:02.333Z,54.33
2019-05-15T05:18:33.038Z,44.57
2019-05-15T05:21:03.471Z,48.53
2019-05-15T05:23:33.951Z,45.70
2019-05-15T05:26:04.333Z,47.93
2019-05-15T05:28:34.986Z,60.33
2019-05-15T05:31:05.345Z,42.37
2019-05-15T05:33:37.953Z,52.33
2019-05-15T05:36:08.108Z,42.37
2019-05-15T05:38:38.971Z,40.07
2019-05-15T05:41:09.657Z,39.57
2019-05-15T05:43:40.318Z,34.90
2019-05-15T05:46:10.629Z,37.60
2019-05-15T05:48:41.082Z,37.30
2019-05-15T05:51:11.416Z,37.83
2019-05-15T05:53:41.937Z,36.03
2019-05-15T05:56:12.650Z,38.20
2019-05-15T05:58:43.090Z,32.37
2019-05-15T06:01:13.454Z,38.83
2019-05-15T06:03:44.156Z,42.73
2019-05-15T06:06:14.514Z,40.83
2019-05-15T06:08:44.835Z,32.33
2019-05-15T06:11:15.255Z,44.37
2019-05-15T06:13:45.613Z,40.53
2019-05-15T06:16:15.931Z,38.90
2019-05-15T06:18:48.946Z,41.67
2019-05-15T06:21:18.372Z,38.60
2019-05-15T06:23:55.314Z,35.57
2019-05-15T06:26:21.189Z,33.90
2019-05-15T06:28:51.615Z,39.97
2019-05-15T06:31:22.091Z,30.17
2019-05-15T06:33:52.501Z,33.77
2019-05-15T06:36:23.013Z,30.63
2019-05-15T06:38:53.390Z,29.33
2019-05-15T06:41:23.724Z,32.53
2019-05-15T06:43:55.175Z,33.57
2019-05-15T06:46:28.017Z,31.30
2019-05-15T06:48:58.087Z,23.80
2019-05-15T06:51:28.947Z,29.80
2019-05-15T06:54:01.903Z,28.87
2019-05-15T06:56:32.315Z,35.37
2019-05-15T06:59:02.752Z,31.17
2019-05-15T07:04:20.315Z,27.83
2019-05-15T07:06:50.841Z,31.23
2019-05-15T07:09:21.319Z,29.00
2019-05-15T07:11:51.736Z,26.47
2019-05-15T07:14:22.962Z,28.00
2019-05-15T07:16:53.539Z,22.03
2019-05-15T07:19:24.369Z,28.37
2019-05-15T07:21:55.126Z,21.57
2019-05-15T07:24:28.850Z,27.90
2019-05-15T07:26:59.164Z,23.77
2019-05-15T07:29:30.387Z,29.77
2019-05-15T07:32:00.800Z,21.30
2019-05-15T07:34:31.227Z,25.03
2019-05-15T07:37:01.664Z,24.13
2019-05-15T07:39:32.390Z,22.63
2019-05-15T07:42:03.899Z,20.30
2019-05-15T07:44:34.683Z,25.83
2019-05-15T07:47:05.363Z,24.27
2019-05-15T07:49:35.981Z,19.80
2019-05-15T07:52:08.659Z,23.60
2019-05-15T07:54:41.331Z,21.30
2019-05-15T07:57:11.349Z,21.67
2019-05-15T07:59:41.803Z,23.07
2019-05-15T08:02:12.590Z,25.13
2019-05-15T08:04:43.123Z,24.60
2019-05-15T08:07:13.598Z,29.30
2019-05-15T08:09:44.514Z,31.40
2019-05-15T08:12:14.913Z,27.80
2019-05-15T08:14:47.502Z,28.80
2019-05-15T08:17:19.122Z,22.00
2019-05-15T08:19:49.267Z,22.97
2019-05-15T08:22:19.694Z,23.87
2019-05-15T08:24:50.493Z,24.33
2019-05-15T08:27:23.603Z,24.73
2019-05-15T08:29:53.090Z,25.97
2019-05-15T08:32:23.520Z,24.77
2019-05-15T08:34:53.881Z,25.27
2019-05-15T08:37:24.474Z,25.20
2019-05-15T08:39:54.876Z,25.20
2019-05-15T08:42:27.982Z,26.97
2019-05-15T08:44:58.353Z,25.83
2019-05-15T08:47:29.731Z,26.73
2019-05-15T08:50:00.469Z,24.07
2019-05-15T08:52:30.883Z,25.07
2019-05-15T08:55:01.715Z,24.87
2019-05-15T08:57:32.109Z,24.87
2019-05-15T09:00:03.534Z,22.07
2019-05-15T09:02:33.959Z,28.83
2019-05-15T09:05:04.876Z,24.03
2019-05-15T09:07:35.509Z,28.70
2019-05-15T09:10:08.842Z,27.97
2019-05-15T09:12:39.059Z,29.00
2019-05-15T09:15:10.677Z,25.00
2019-05-15T09:17:41.149Z,22.13
2019-05-15T09:20:12.103Z,24.70
2019-05-15T09:22:42.490Z,26.70
2019-05-15T09:25:14.943Z,22.40
2019-05-15T09:27:45.333Z,28.50
2019-05-15T09:30:18.532Z,26.93
2019-05-15T09:32:48.883Z,21.67
2019-05-15T09:35:22.105Z,25.60
2019-05-15T09:37:52.799Z,28.13
2019-05-15T09:40:37.680Z,26.10
2019-05-15T09:42:55.135Z,21.53
2019-05-15T09:45:25.689Z,27.30
2019-05-15T09:47:58.645Z,24.60
2019-05-15T09:50:28.267Z,26.30
2019-05-15T09:52:59.014Z,24.03
2019-05-15T09:55:29.611Z,22.90
2019-05-15T09:58:00.077Z,25.90
2019-05-15T10:00:30.991Z,20.60
2019-05-15T10:03:01.439Z,31.53
2019-05-15T10:05:31.863Z,30.27
2019-05-15T10:08:02.303Z,25.10
2019-05-15T10:10:32.727Z,25.80
2019-05-15T10:13:03.317Z,23.50
2019-05-15T10:15:33.753Z,30.43
2019-05-15T10:18:04.476Z,24.90
2019-05-15T10:20:35.869Z,31.67
2019-05-15T10:23:08.758Z,20.93
2019-05-15T10:25:39.036Z,24.70
2019-05-15T10:28:10.773Z,24.83
2019-05-15T10:30:42.891Z,25.53
2019-05-15T10:33:13.433Z,20.27
2019-05-15T10:35:44.283Z,23.43
2019-05-15T10:38:15.614Z,24.63
2019-05-15T10:41:00.114Z,23.53
2019-05-15T10:43:20.611Z,23.93
2019-05-15T10:45:50.391Z,22.63
2019-05-15T10:48:21.559Z,22.90
2019-05-15T10:50:52.595Z,25.07
2019-05-15T10:53:23.036Z,25.70
2019-05-15T10:55:54.873Z,30.47
2019-05-15T10:58:25.300Z,27.17
2019-05-15T11:00:55.690Z,23.23
2019-05-15T11:03:26.139Z,40.93
2019-05-15T11:05:57.951Z,35.10
2019-05-15T11:08:29.054Z,21.93
2019-05-15T11:11:01.213Z,16.97
2019-05-15T11:13:31.734Z,17.07
2019-05-15T11:16:02.227Z,19.93
2019-05-15T11:18:32.594Z,16.57
2019-05-15T11:21:02.994Z,19.00
2019-05-15T11:23:33.441Z,19.47
2019-05-15T11:26:03.844Z,19.63
2019-05-15T11:28:34.872Z,19.63
2019-05-15T11:31:05.280Z,17.30
2019-05-15T11:33:38.332Z,19.43
2019-05-15T11:36:08.916Z,20.73
2019-05-15T11:38:39.308Z,20.13
2019-05-15T11:41:09.675Z,21.13
2019-05-15T11:43:40.118Z,21.83
2019-05-15T11:46:11.350Z,20.33
2019-05-15T11:48:41.775Z,19.33
2019-05-15T11:51:12.153Z,21.80
2019-05-15T11:53:42.705Z,22.43
2019-05-15T11:56:13.134Z,18.20
2019-05-15T11:58:44.292Z,21.40
2019-05-15T12:01:14.713Z,22.43
2019-05-15T12:03:45.327Z,22.37
2019-05-15T12:06:22.018Z,17.77
2019-05-15T12:08:49.017Z,27.97
2019-05-15T12:11:31.726Z,20.30
2019-05-15T12:13:51.435Z,22.30
2019-05-15T12:16:23.070Z,20.37
2019-05-15T12:18:53.384Z,18.77
2019-05-15T12:21:23.784Z,21.20
2019-05-15T12:23:55.275Z,15.83
2019-05-15T12:26:28.920Z,18.83
2019-05-15T12:28:58.989Z,22.23
2019-05-15T12:31:30.595Z,22.73
2019-05-15T12:34:01.079Z,19.80
2019-05-15T12:36:51.347Z,21.97
2019-05-15T12:39:10.576Z,21.43
2019-05-15T12:59:40.757Z,19.37
2019-05-15T13:01:58.617Z,20.47
2019-05-15T13:04:29.451Z,15.77
2019-05-15T13:07:12.994Z,16.80
2019-05-15T13:09:32.048Z,16.20
2019-05-15T13:12:02.580Z,21.07
2019-05-15T13:14:34.326Z,17.97
2019-05-15T13:17:05.615Z,14.07
2019-05-15T13:19:38.595Z,19.80
2019-05-15T13:22:17.953Z,15.30
2019-05-15T13:24:40.203Z,13.90
2019-05-15T13:27:10.620Z,16.10
2019-05-15T13:29:41.405Z,15.77
2019-05-15T13:32:11.809Z,16.23
2019-05-15T13:34:42.204Z,14.10
2019-05-15T13:37:26.365Z,17.67
2019-05-15T13:39:44.868Z,16.13
2019-05-15T13:42:15.304Z,14.60
2019-05-15T13:44:45.683Z,22.63
2019-05-15T13:47:17.782Z,18.40
2019-05-15T13:49:49.014Z,20.03
2019-05-15T13:52:19.417Z,18.30
2019-05-15T13:54:50.470Z,18.43
2019-05-15T13:57:20.872Z,19.80
2019-05-15T13:59:51.223Z,17.33
2019-05-15T14:02:21.671Z,17.40
2019-05-15T14:04:52.032Z,19.37
2019-05-15T14:07:22.432Z,17.00
2019-05-15T14:09:52.826Z,16.93
2019-05-15T14:12:23.416Z,18.47
2019-05-15T14:14:53.766Z,15.60
2019-05-15T14:17:24.196Z,19.77
2019-05-15T14:19:54.616Z,20.80
2019-05-15T14:22:25.045Z,21.47
2019-05-15T14:24:58.374Z,18.20
2019-05-15T14:27:29.264Z,17.63
2019-05-15T14:30:01.955Z,19.13
2019-05-15T14:32:38.627Z,15.90
2019-05-15T14:35:05.250Z,19.30
2019-05-15T14:37:36.144Z,17.60
2019-05-15T14:40:09.300Z,17.53
2019-05-15T14:42:40.275Z,20.40
2019-05-15T14:45:11.114Z,17.43
2019-05-15T14:47:42.210Z,17.10
2019-05-15T14:50:13.066Z,18.70
2019-05-15T14:52:43.596Z,19.40
2019-05-15T14:55:15.266Z,17.43
2019-05-15T14:57:48.439Z,18.10
2019-05-15T15:00:20.000Z,20.20
2019-05-15T15:02:50.077Z,21.67
2019-05-15T15:05:22.522Z,17.60
2019-05-15T15:07:54.246Z,36.93
2019-05-15T15:10:24.754Z,27.13
2019-05-15T15:12:55.463Z,26.63
2019-05-15T15:15:28.529Z,19.50
2019-05-15T15:17:58.414Z,20.70
2019-05-15T15:20:29.353Z,21.33
2019-05-15T15:22:59.968Z,25.60
2019-05-15T15:25:30.446Z,23.43
2019-05-15T15:28:00.926Z,22.87
2019-05-15T15:30:31.360Z,27.83
2019-05-15T15:33:02.042Z,24.37
2019-05-15T15:35:32.507Z,23.50
2019-05-15T15:38:05.722Z,24.20
2019-05-15T15:40:38.579Z,21.83
2019-05-15T15:43:08.966Z,33.23
2019-05-15T15:45:41.246Z,28.47
2019-05-15T15:48:11.780Z,26.07
2019-05-15T15:50:42.890Z,32.13
2019-05-15T15:53:13.454Z,30.13
2019-05-15T15:55:44.567Z,23.97
2019-05-15T15:58:14.916Z,25.03
2019-05-15T16:00:45.596Z,35.63
2019-05-15T16:03:16.048Z,31.97
2019-05-15T16:05:48.761Z,34.83
2019-05-15T16:08:19.123Z,37.53
2019-05-15T16:10:49.720Z,33.27
2019-05-15T16:13:20.191Z,41.87
2019-05-15T16:15:50.679Z,45.50
2019-05-15T16:18:21.130Z,56.17
2019-05-15T16:20:51.608Z,51.93
2019-05-15T16:23:21.983Z,49.63
2019-05-15T16:25:52.296Z,46.67
2019-05-15T16:28:22.828Z,49.23
2019-05-15T16:30:53.507Z,45.30
2019-05-15T16:33:23.930Z,50.57
2019-05-15T16:35:54.830Z,60.27
2019-05-15T16:38:25.229Z,69.00
2019-05-15T16:40:58.204Z,74.20
2019-05-15T16:43:28.762Z,92.70
2019-05-15T16:45:59.542Z,132.40
2019-05-15T16:48:30.150Z,172.83
2019-05-15T16:51:01.116Z,151.77
2019-05-15T16:53:31.597Z,197.40
2019-05-15T16:56:02.260Z,229.23
2019-05-15T16:58:32.748Z,253.00
2019-05-15T17:01:03.156Z,312.77
2019-05-15T17:03:33.828Z,256.10
2019-05-15T17:06:04.284Z,227.47
2019-05-15T17:08:35.124Z,279.60
2019-05-15T17:11:07.934Z,236.70
2019-05-15T17:13:39.504Z,224.60
2019-05-15T17:16:09.656Z,250.97
2019-05-15T17:18:40.436Z,234.87
2019-05-15T17:21:10.764Z,183.87
2019-05-15T17:23:41.679Z,129.93
2019-05-15T17:26:12.054Z,133.83
2019-05-15T17:28:42.462Z,132.10
2019-05-15T17:31:13.475Z,163.03
2019-05-15T17:33:44.089Z,159.90
2019-05-15T17:36:14.504Z,124.20
2019-05-15T17:38:44.947Z,173.60
2019-05-15T17:41:16.920Z,204.33
2019-05-15T17:43:48.606Z,175.87
2019-05-15T17:46:19.143Z,183.90
2019-05-15T17:48:55.784Z,199.53
2019-05-15T17:51:22.627Z,146.00
2019-05-15T17:53:54.377Z,194.37
2019-05-15T17:56:24.899Z,175.27
2019-05-15T17:58:55.563Z,202.30
2019-05-15T18:01:28.359Z,188.80
2019-05-15T18:03:59.545Z,202.40
2019-05-15T18:06:31.108Z,205.43
2019-05-15T18:09:01.530Z,207.47
2019-05-15T18:11:34.048Z,207.63
2019-05-15T18:14:04.924Z,197.00
2019-05-15T18:16:37.768Z,168.10
2019-05-15T18:19:08.372Z,197.50
2019-05-15T18:21:39.377Z,209.70
2019-05-15T18:24:09.977Z,187.43
2019-05-15T18:26:40.406Z,165.17
2019-05-15T18:29:10.968Z,218.83
2019-05-15T18:31:41.731Z,230.07
2019-05-15T18:34:12.691Z,150.70
2019-05-15T18:36:43.138Z,181.80
2019-05-15T18:39:14.073Z,151.87
2019-05-15T18:41:44.619Z,136.53
2019-05-15T18:44:15.216Z,121.13
2019-05-15T18:46:48.610Z,119.47
2019-05-15T18:49:19.585Z,115.57
2019-05-15T18:51:50.178Z,99.10
2019-05-15T18:54:20.559Z,90.73
2019-05-15T18:56:51.461Z,90.67
2019-05-15T18:59:21.949Z,72.90
2019-05-15T19:01:52.526Z,73.87
2019-05-15T19:04:23.360Z,91.00
2019-05-15T19:06:53.746Z,63.27
2019-05-15T19:09:24.172Z,65.47
2019-05-15T19:11:54.605Z,77.13
2019-05-15T19:14:25.061Z,80.37
2019-05-15T19:16:55.728Z,63.57
2019-05-15T19:19:28.133Z,80.57
2019-05-15T19:21:58.371Z,77.97
2019-05-15T19:24:29.008Z,95.90
2019-05-15T19:26:59.517Z,99.50
2019-05-15T19:29:30.567Z,86.87
2019-05-15T19:32:01.236Z,78.50
2019-05-15T19:34:31.781Z,86.40
2019-05-15T19:37:02.097Z,84.03
2019-05-15T19:39:32.922Z,83.80
2019-05-15T19:42:03.317Z,87.43
2019-05-15T19:44:34.135Z,86.77
2019-05-15T19:47:04.851Z,91.00
2019-05-15T19:49:35.249Z,95.57
2019-05-15T19:52:05.826Z,97.10
2019-05-15T19:54:37.818Z,83.47
2019-05-15T19:57:08.164Z,109.77
2019-05-15T19:59:39.255Z,95.27
2019-05-15T20:02:12.994Z,184.13
2019-05-15T20:04:43.401Z,109.33
2019-05-15T20:07:14.048Z,108.03
2019-05-15T20:09:44.457Z,107.43
2019-05-15T20:12:14.825Z,114.03
2019-05-15T20:14:45.911Z,80.57
2019-05-15T20:17:18.195Z,96.67
2019-05-15T20:19:48.889Z,92.97
2019-05-15T20:22:19.498Z,89.27
2019-05-15T20:24:49.957Z,94.90
2019-05-15T20:27:20.428Z,103.77
2019-05-15T20:29:52.088Z,103.73
2019-05-15T20:32:22.877Z,128.03
2019-05-15T20:34:53.309Z,110.33
2019-05-15T20:37:23.860Z,109.40
2019-05-15T20:39:54.380Z,101.30
2019-05-15T20:42:24.756Z,117.53
2019-05-15T20:44:57.766Z,136.13
2019-05-15T20:47:28.061Z,162.67
2019-05-15T20:49:59.032Z,129.47
2019-05-15T20:52:29.544Z,168.47
2019-05-15T20:55:00.196Z,151.90
2019-05-15T20:57:30.579Z,185.37
2019-05-15T21:00:01.146Z,202.90
2019-05-15T21:02:32.343Z,201.63
2019-05-15T21:05:02.863Z,190.70
2019-05-15T21:07:38.823Z,134.07
2019-05-15T21:10:08.503Z,236.37
2019-05-15T21:12:40.922Z,116.80
2019-05-15T21:15:10.961Z,103.97
2019-05-15T21:17:43.014Z,101.63
2019-05-15T21:20:13.768Z,92.37
2019-05-15T21:22:44.243Z,92.77
2019-05-15T21:25:15.224Z,119.70
2019-05-15T21:27:48.571Z,133.80
2019-05-15T21:30:19.114Z,175.40
2019-05-15T21:32:49.888Z,215.67
2019-05-15T21:35:20.262Z,244.37
2019-05-15T21:37:50.726Z,197.00
2019-05-15T21:40:21.170Z,225.80
2019-05-15T21:42:52.002Z,196.43
2019-05-15T21:45:22.507Z,177.57
2019-05-15T21:47:53.002Z,187.13
2019-05-15T21:50:23.396Z,178.73
2019-05-15T21:52:53.778Z,187.27
2019-05-15T21:55:24.465Z,173.83
2019-05-15T21:57:55.151Z,188.40
2019-05-15T22:00:32.646Z,179.13
2019-05-15T22:03:05.117Z,199.20
2019-05-15T22:05:35.639Z,200.57
2019-05-15T22:08:07.812Z,231.73
2019-05-15T22:10:38.944Z,219.00
2019-05-15T22:13:09.397Z,204.10
2019-05-15T22:15:39.943Z,250.33
2019-05-15T22:18:11.627Z,254.57
2019-05-15T22:20:42.205Z,226.63
2019-05-15T22:23:12.707Z,209.40
2019-05-15T22:25:44.530Z,219.43
2019-05-15T22:28:14.943Z,226.97
2019-05-15T22:30:47.823Z,274.47
2019-05-15T22:33:18.013Z,274.87
2019-05-15T22:35:48.883Z,235.83
2019-05-15T22:38:19.595Z,211.60
2019-05-15T22:40:50.377Z,193.20
2019-05-15T22:43:20.923Z,141.13
2019-05-15T22:45:51.621Z,161.37
2019-05-15T22:48:23.236Z,199.27
2019-05-15T22:50:53.703Z,208.37
2019-05-15T22:53:24.231Z,208.57
2019-05-15T22:55:54.623Z,210.07
2019-05-15T22:58:25.231Z,235.83
2019-05-15T23:00:55.791Z,177.13
2019-05-15T23:03:28.103Z,177.77
2019-05-15T23:05:58.295Z,218.60
2019-05-15T23:08:29.717Z,251.00
2019-05-15T23:11:00.384Z,231.33
2019-05-15T23:13:30.822Z,253.37
2019-05-15T23:16:01.286Z,228.90
2019-05-15T23:18:31.740Z,243.33
2019-05-15T23:21:02.159Z,212.83
2019-05-15T23:23:32.552Z,194.67
2019-05-15T23:26:03.216Z,180.23
2019-05-15T23:28:33.657Z,192.50
2019-05-15T23:31:04.044Z,173.97
2019-05-15T23:33:34.545Z,178.23
2019-05-15T23:36:05.329Z,168.73
2019-05-15T23:38:35.797Z,172.17
2019-05-15T23:41:08.115Z,192.80
2019-05-15T23:43:38.902Z,172.70
2019-05-15T23:46:09.709Z,163.47
2019-05-15T23:48:40.613Z,150.60
2019-05-15T23:51:12.115Z,160.07
2019-05-15T23:53:42.644Z,170.03
2019-05-15T23:56:13.273Z,179.93
2019-05-15T23:58:43.705Z,182.57
